Hlavní strana
METAR-TAF:

METAR-TAF

Letiště :

Abidžan, Pobřeží slonoviny

zeměpisná šířka: 05-15N, zeměpisná délka: 003-56W, výška: 7 m

Aktuální stav počasí

Zpráva byla vytvořena před 10 minutami, v 10:30 UTC
Jihozápadní vítr 7 kt, proměnlivý mezi jižním a západním
Teplota 31°C
Vlhkost vzduchu 66%
Tlak 1012 hPa
Viditelnost 10 km a více
Polojasno ve výšce 1200 ft

METAR: DIAP 221030Z 23007KT 180V260 9999 SCT012 31/24 Q1012 NOSIG

Čas: 10:40 (10:40 UTC)

Předpověď počasí

Zpráva byla vytvořena před 5 hodinami a 40 minutami, v 05:00 UTC
Předpověď platná od 22 v 06 UTC do 23 v 12 UTC
Jihojihozápadní vítr 6 kt
Viditelnost 10 km a více
Polojasno ve výšce 1200 ft
Dočasný
od 22 v 15 UTC do 22 v 21 UTC
Oblačno až skoro zataženo ve výšce 1200 ft
Skoro jasno ve výšce 2000 ft, Cumulonimbus.
bouřka
Pravděpodobnost 30% :
Dočasný
od 23 v 06 UTC do 23 v 09 UTC
Viditelnost: 3000 m
kouřmo

TAF: DIAP 220500Z 2206/2312 20006KT 9999 SCT012 TEMPO 2215/2221 TS BKN012 FEW020CB PROB30 TEMPO 2306/2309 3000 BR

Stav a předpovědi počasí z více než 4 000 letišť (zprávy METAR a TAF).

Červené a žluté tečky na mapě představují dostupné meteorologické stanice.

Když kurzor umístíte na tečku, zobrazí se název stanice.

Pak kliknutím zobrazíte stav a předpověď počasí.

Chcete-li změnit mapu, kliknutím na zelené tlačítko se znaménkem +mapu přiblížíte, kliknutím na zelené tlačítko se znaménkem – mapu oddálíte a kliknutím na zelené šipky přejdete na sousední mapy.


METAR-TAF: